sensor_id;sensor_type;location;lat;lon;timestamp;pressure;altitude;pressure_sealevel;temperature;humidity
67840;BME280;54636;51.684;5.142;2024-01-15T00:00:38;100465.16;;;1.49;100.00
67840;BME280;54636;51.684;5.142;2024-01-15T00:03:04;100454.75;;;1.38;100.00
67840;BME280;54636;51.684;5.142;2024-01-15T00:05:29;100456.88;;;1.30;100.00
67840;BME280;54636;51.684;5.142;2024-01-15T00:07:55;100451.00;;;1.23;100.00
67840;BME280;54636;51.684;5.142;2024-01-15T00:10:20;100447.03;;;1.15;100.00
67840;BME280;54636;51.684;5.142;2024-01-15T00:12:45;100444.22;;;1.06;100.00
67840;BME280;54636;51.684;5.142;2024-01-15T00:15:11;100435.31;;;0.96;100.00
67840;BME280;54636;51.684;5.142;2024-01-15T00:17:36;100430.28;;;0.98;100.00
67840;BME280;54636;51.684;5.142;2024-01-15T00:20:02;100426.94;;;0.94;100.00
67840;BME280;54636;51.684;5.142;2024-01-15T00:22:28;100424.47;;;0.87;100.00
67840;BME280;54636;51.684;5.142;2024-01-15T00:24:54;100420.16;;;0.77;100.00
67840;BME280;54636;51.684;5.142;2024-01-15T00:27:19;100416.91;;;0.69;100.00
67840;BME280;54636;51.684;5.142;2024-01-15T00:29:45;100420.47;;;0.79;100.00
67840;BME280;54636;51.684;5.142;2024-01-15T00:32:10;100418.22;;;0.77;100.00
67840;BME280;54636;51.684;5.142;2024-01-15T00:34:36;100415.78;;;0.83;100.00
67840;BME280;54636;51.684;5.142;2024-01-15T00:37:01;100424.97;;;0.82;100.00
67840;BME280;54636;51.684;5.142;2024-01-15T00:39:26;100409.44;;;0.77;100.00
67840;BME280;54636;51.684;5.142;2024-01-15T00:41:52;100409.44;;;0.77;100.00
67840;BME280;54636;51.684;5.142;2024-01-15T00:44:17;100405.38;;;0.72;100.00
67840;BME280;54636;51.684;5.142;2024-01-15T00:46:46;100403.69;;;0.78;100.00
67840;BME280;54636;51.684;5.142;2024-01-15T00:49:12;100399.09;;;0.79;100.00
67840;BME280;54636;51.684;5.142;2024-01-15T00:51:38;100411.19;;;0.83;100.00
67840;BME280;54636;51.684;5.142;2024-01-15T00:54:04;100408.75;;;0.89;100.00
67840;BME280;54636;51.684;5.142;2024-01-15T00:56:29;100407.00;;;0.82;100.00
67840;BME280;54636;51.684;5.142;2024-01-15T00:58:54;100396.69;;;0.68;100.00
67840;BME280;54636;51.684;5.142;2024-01-15T01:01:20;100396.56;;;0.59;100.00
67840;BME280;54636;51.684;5.142;2024-01-15T01:03:45;100393.75;;;0.50;100.00
67840;BME280;54636;51.684;5.142;2024-01-15T01:06:10;100396.28;;;0.41;100.00
67840;BME280;54636;51.684;5.142;2024-01-15T01:08:36;100391.88;;;0.34;100.00
67840;BME280;54636;51.684;5.142;2024-01-15T01:11:01;100395.69;;;0.33;100.00
67840;BME280;54636;51.684;5.142;2024-01-15T01:13:27;100388.19;;;0.28;100.00
67840;BME280;54636;51.684;5.142;2024-01-15T01:15:52;100384.84;;;0.24;100.00
67840;BME280;54636;51.684;5.142;2024-01-15T01:18:17;100383.44;;;0.19;100.00
67840;BME280;54636;51.684;5.142;2024-01-15T01:20:43;100372.75;;;0.19;100.00
67840;BME280;54636;51.684;5.142;2024-01-15T01:23:08;100380.03;;;0.19;100.00
67840;BME280;54636;51.684;5.142;2024-01-15T01:25:33;100369.50;;;0.12;100.00
67840;BME280;54636;51.684;5.142;2024-01-15T01:27:59;100380.94;;;0.12;100.00
67840;BME280;54636;51.684;5.142;2024-01-15T01:30:24;100358.44;;;-0.03;100.00
67840;BME280;54636;51.684;5.142;2024-01-15T01:32:50;100374.94;;;0.08;100.00
67840;BME280;54636;51.684;5.142;2024-01-15T01:35:15;100379.94;;;0.06;100.00
67840;BME280;54636;51.684;5.142;2024-01-15T01:37:40;100380.28;;;0.08;100.00
67840;BME280;54636;51.684;5.142;2024-01-15T01:40:06;100383.63;;;0.12;100.00
67840;BME280;54636;51.684;5.142;2024-01-15T01:42:32;100384.78;;;0.11;100.00
67840;BME280;54636;51.684;5.142;2024-01-15T01:44:57;100388.13;;;0.15;100.00
67840;BME280;54636;51.684;5.142;2024-01-15T01:47:23;100391.88;;;0.18;100.00
67840;BME280;54636;51.684;5.142;2024-01-15T01:49:51;100376.69;;;0.15;100.00
67840;BME280;54636;51.684;5.142;2024-01-15T01:52:17;100384.63;;;0.18;100.00
67840;BME280;54636;51.684;5.142;2024-01-15T01:54:42;100377.78;;;0.17;100.00
67840;BME280;54636;51.684;5.142;2024-01-15T01:57:08;100378.00;;;0.23;100.00
67840;BME280;54636;51.684;5.142;2024-01-15T01:59:34;100376.03;;;0.11;100.00
67840;BME280;54636;51.684;5.142;2024-01-15T02:02:02;100373.84;;;0.06;100.00
67840;BME280;54636;51.684;5.142;2024-01-15T02:04:29;100378.31;;;-0.04;100.00
67840;BME280;54636;51.684;5.142;2024-01-15T02:06:56;100378.63;;;-0.02;100.00
67840;BME280;54636;51.684;5.142;2024-01-15T02:09:21;100375.63;;;-0.04;100.00
67840;BME280;54636;51.684;5.142;2024-01-15T02:11:47;100371.56;;;-0.09;100.00
67840;BME280;54636;51.684;5.142;2024-01-15T02:14:13;100365.88;;;-0.11;100.00
67840;BME280;54636;51.684;5.142;2024-01-15T02:16:38;100376.47;;;-0.07;100.00
67840;BME280;54636;51.684;5.142;2024-01-15T02:19:04;100383.31;;;-0.06;100.00
67840;BME280;54636;51.684;5.142;2024-01-15T02:21:29;100373.38;;;-0.06;100.00
67840;BME280;54636;51.684;5.142;2024-01-15T02:23:56;100374.47;;;-0.03;100.00
67840;BME280;54636;51.684;5.142;2024-01-15T02:26:21;100372.44;;;0.01;100.00
67840;BME280;54636;51.684;5.142;2024-01-15T02:28:48;100375.09;;;0.01;100.00
67840;BME280;54636;51.684;5.142;2024-01-15T02:31:14;100369.47;;;-0.01;100.00
67840;BME280;54636;51.684;5.142;2024-01-15T02:33:39;100375.44;;;0.03;100.00
67840;BME280;54636;51.684;5.142;2024-01-15T02:36:07;100372.56;;;-0.03;100.00
67840;BME280;54636;51.684;5.142;2024-01-15T02:38:33;100377.88;;;-0.03;100.00
67840;BME280;54636;51.684;5.142;2024-01-15T02:40:58;100374.06;;;-0.02;100.00
67840;BME280;54636;51.684;5.142;2024-01-15T02:43:24;100373.19;;;0.02;100.00
67840;BME280;54636;51.684;5.142;2024-01-15T02:45:49;100376.84;;;0.08;100.00
67840;BME280;54636;51.684;5.142;2024-01-15T02:48:14;100374.53;;;0.10;100.00
67840;BME280;54636;51.684;5.142;2024-01-15T02:50:40;100366.94;;;0.08;100.00
67840;BME280;54636;51.684;5.142;2024-01-15T02:53:05;100370.34;;;0.09;100.00
67840;BME280;54636;51.684;5.142;2024-01-15T02:55:31;100366.94;;;0.08;100.00
67840;BME280;54636;51.684;5.142;2024-01-15T02:57:56;100357.63;;;0.00;100.00
67840;BME280;54636;51.684;5.142;2024-01-15T03:00:21;100361.69;;;0.05;100.00
67840;BME280;54636;51.684;5.142;2024-01-15T03:02:48;100361.47;;;-0.01;100.00
67840;BME280;54636;51.684;5.142;2024-01-15T03:05:15;100354.78;;;-0.09;100.00
67840;BME280;54636;51.684;5.142;2024-01-15T03:07:41;100366.53;;;-0.07;100.00
67840;BME280;54636;51.684;5.142;2024-01-15T03:10:07;100365.13;;;-0.11;100.00
67840;BME280;54636;51.684;5.142;2024-01-15T03:12:33;100362.88;;;-0.13;100.00
67840;BME280;54636;51.684;5.142;2024-01-15T03:14:58;100361.97;;;-0.22;100.00
67840;BME280;54636;51.684;5.142;2024-01-15T03:17:24;100368.88;;;-0.25;100.00
67840;BME280;54636;51.684;5.142;2024-01-15T03:19:49;100373.03;;;-0.24;100.00
67840;BME280;54636;51.684;5.142;2024-01-15T03:22:17;100368.13;;;-0.25;100.00
67840;BME280;54636;51.684;5.142;2024-01-15T03:24:43;100368.63;;;-0.30;100.00
67840;BME280;54636;51.684;5.142;2024-01-15T03:27:08;100365.03;;;-0.24;100.00
67840;BME280;54636;51.684;5.142;2024-01-15T03:29:34;100360.38;;;-0.20;100.00
67840;BME280;54636;51.684;5.142;2024-01-15T03:31:59;100364.88;;;-0.17;100.00
67840;BME280;54636;51.684;5.142;2024-01-15T03:34:24;100371.22;;;-0.11;100.00
67840;BME280;54636;51.684;5.142;2024-01-15T03:36:50;100360.78;;;-0.05;100.00
67840;BME280;54636;51.684;5.142;2024-01-15T03:39:15;100364.44;;;0.01;100.00
67840;BME280;54636;51.684;5.142;2024-01-15T03:41:40;100367.09;;;0.01;100.00
67840;BME280;54636;51.684;5.142;2024-01-15T03:44:06;100361.25;;;0.06;100.00
67840;BME280;54636;51.684;5.142;2024-01-15T03:46:32;100358.91;;;0.08;100.00
67840;BME280;54636;51.684;5.142;2024-01-15T03:48:57;100354.25;;;0.12;100.00
67840;BME280;54636;51.684;5.142;2024-01-15T03:51:23;100352.56;;;0.18;100.00
67840;BME280;54636;51.684;5.142;2024-01-15T03:53:48;100350.66;;;0.19;100.00
67840;BME280;54636;51.684;5.142;2024-01-15T03:56:13;100351.41;;;0.19;100.00
67840;BME280;54636;51.684;5.142;2024-01-15T03:58:39;100331.53;;;0.20;100.00
67840;BME280;54636;51.684;5.142;2024-01-15T04:01:08;100339.50;;;0.37;100.00
67840;BME280;54636;51.684;5.142;2024-01-15T04:03:33;100338.25;;;0.41;100.00
67840;BME280;54636;51.684;5.142;2024-01-15T04:05:59;100338.50;;;0.47;100.00
67840;BME280;54636;51.684;5.142;2024-01-15T04:08:24;100341.31;;;0.56;100.00
67840;BME280;54636;51.684;5.142;2024-01-15T04:10:49;100341.13;;;0.63;100.00
67840;BME280;54636;51.684;5.142;2024-01-15T04:13:15;100331.91;;;0.64;100.00
67840;BME280;54636;51.684;5.142;2024-01-15T04:15:40;100330.94;;;0.71;100.00
67840;BME280;54636;51.684;5.142;2024-01-15T04:18:06;100332.88;;;0.70;100.00
67840;BME280;54636;51.684;5.142;2024-01-15T04:20:31;100327.84;;;0.72;100.00
67840;BME280;54636;51.684;5.142;2024-01-15T04:22:56;100331.28;;;0.73;100.00
67840;BME280;54636;51.684;5.142;2024-01-15T04:25:22;100323.69;;;0.71;100.00
67840;BME280;54636;51.684;5.142;2024-01-15T04:27:47;100321.84;;;0.68;100.00
67840;BME280;54636;51.684;5.142;2024-01-15T04:30:13;100325.28;;;0.69;100.00
67840;BME280;54636;51.684;5.142;2024-01-15T04:32:38;100320.78;;;0.65;100.00
67840;BME280;54636;51.684;5.142;2024-01-15T04:35:04;100317.47;;;0.61;100.00
67840;BME280;54636;51.684;5.142;2024-01-15T04:37:29;100311.25;;;0.52;100.00
67840;BME280;54636;51.684;5.142;2024-01-15T04:39:54;100308.78;;;0.45;100.00
67840;BME280;54636;51.684;5.142;2024-01-15T04:42:23;100304.59;;;0.44;100.00
67840;BME280;54636;51.684;5.142;2024-01-15T04:44:49;100299.91;;;0.48;100.00
67840;BME280;54636;51.684;5.142;2024-01-15T04:47:14;100310.50;;;0.51;100.00
67840;BME280;54636;51.684;5.142;2024-01-15T04:49:39;100317.06;;;0.63;100.00
67840;BME280;54636;51.684;5.142;2024-01-15T04:52:05;100316.31;;;0.62;100.00
67840;BME280;54636;51.684;5.142;2024-01-15T04:54:30;100313.31;;;0.60;100.00
67840;BME280;54636;51.684;5.142;2024-01-15T04:56:55;100306.25;;;0.66;100.00
67840;BME280;54636;51.684;5.142;2024-01-15T04:59:21;100315.75;;;0.68;100.00
67840;BME280;54636;51.684;5.142;2024-01-15T05:01:46;100306.69;;;0.65;100.00
67840;BME280;54636;51.684;5.142;2024-01-15T05:04:12;100304.63;;;0.56;100.00
67840;BME280;54636;51.684;5.142;2024-01-15T05:06:38;100300.78;;;0.57;100.00
67840;BME280;54636;51.684;5.142;2024-01-15T05:09:03;100303.03;;;0.59;100.00
67840;BME280;54636;51.684;5.142;2024-01-15T05:11:29;100294.69;;;0.57;100.00
67840;BME280;54636;51.684;5.142;2024-01-15T05:13:54;100292.78;;;0.57;100.00
67840;BME280;54636;51.684;5.142;2024-01-15T05:16:20;100293.97;;;0.69;100.00
67840;BME280;54636;51.684;5.142;2024-01-15T05:18:45;100287.44;;;0.70;100.00
67840;BME280;54636;51.684;5.142;2024-01-15T05:21:11;100294.81;;;0.66;100.00
67840;BME280;54636;51.684;5.142;2024-01-15T05:23:36;100287.34;;;0.61;100.00
67840;BME280;54636;51.684;5.142;2024-01-15T05:26:01;100295.88;;;0.56;100.00
67840;BME280;54636;51.684;5.142;2024-01-15T05:28:27;100282.81;;;0.45;100.00
67840;BME280;54636;51.684;5.142;2024-01-15T05:30:53;100294.69;;;0.57;100.00
67840;BME280;54636;51.684;5.142;2024-01-15T05:33:20;100297.88;;;0.52;100.00
67840;BME280;54636;51.684;5.142;2024-01-15T05:35:46;100293.91;;;0.44;100.00
67840;BME280;54636;51.684;5.142;2024-01-15T05:38:11;100285.25;;;0.40;100.00
67840;BME280;54636;51.684;5.142;2024-01-15T05:40:37;100291.00;;;0.38;100.00
67840;BME280;54636;51.684;5.142;2024-01-15T05:43:03;100293.53;;;0.29;100.00
67840;BME280;54636;51.684;5.142;2024-01-15T05:45:30;100298.03;;;0.32;100.00
67840;BME280;54636;51.684;5.142;2024-01-15T05:47:55;100301.56;;;0.29;100.00
67840;BME280;54636;51.684;5.142;2024-01-15T05:50:21;100289.69;;;0.30;100.00
67840;BME280;54636;51.684;5.142;2024-01-15T05:52:47;100293.22;;;0.27;100.00
67840;BME280;54636;51.684;5.142;2024-01-15T05:55:12;100288.63;;;0.27;100.00
67840;BME280;54636;51.684;5.142;2024-01-15T05:57:38;100283.28;;;0.27;100.00
67840;BME280;54636;51.684;5.142;2024-01-15T06:00:04;100289.28;;;0.31;100.00
67840;BME280;54636;51.684;5.142;2024-01-15T06:02:30;100285.53;;;0.29;100.00
67840;BME280;54636;51.684;5.142;2024-01-15T06:04:55;100278.34;;;0.26;100.00
67840;BME280;54636;51.684;5.142;2024-01-15T06:07:20;100280.28;;;0.25;100.00
67840;BME280;54636;51.684;5.142;2024-01-15T06:09:46;100273.34;;;0.28;100.00
67840;BME280;54636;51.684;5.142;2024-01-15T06:12:11;100274.50;;;0.27;100.00
67840;BME280;54636;51.684;5.142;2024-01-15T06:14:37;100276.00;;;0.28;100.00
67840;BME280;54636;51.684;5.142;2024-01-15T06:17:03;100278.25;;;0.29;100.00
67840;BME280;54636;51.684;5.142;2024-01-15T06:19:28;100272.16;;;0.29;100.00
67840;BME280;54636;51.684;5.142;2024-01-15T06:21:53;100263.72;;;0.30;100.00
67840;BME280;54636;51.684;5.142;2024-01-15T06:24:19;100252.06;;;0.24;100.00
67840;BME280;54636;51.684;5.142;2024-01-15T06:26:46;100266.31;;;0.34;100.00
67840;BME280;54636;51.684;5.142;2024-01-15T06:29:12;100271.31;;;0.32;100.00
67840;BME280;54636;51.684;5.142;2024-01-15T06:31:37;100261.38;;;0.32;100.00
67840;BME280;54636;51.684;5.142;2024-01-15T06:34:02;100263.63;;;0.34;100.00
67840;BME280;54636;51.684;5.142;2024-01-15T06:36:28;100272.22;;;0.42;100.00
67840;BME280;54636;51.684;5.142;2024-01-15T06:38:53;100268.47;;;0.39;100.00
67840;BME280;54636;51.684;5.142;2024-01-15T06:41:19;100260.22;;;0.33;100.00
67840;BME280;54636;51.684;5.142;2024-01-15T06:43:44;100270.91;;;0.33;100.00
67840;BME280;54636;51.684;5.142;2024-01-15T06:46:09;100271.66;;;0.34;100.00
67840;BME280;54636;51.684;5.142;2024-01-15T06:48:35;100265.66;;;0.30;100.00
67840;BME280;54636;51.684;5.142;2024-01-15T06:51:00;100279.00;;;0.30;100.00
67840;BME280;54636;51.684;5.142;2024-01-15T06:53:25;100265.31;;;0.28;100.00
67840;BME280;54636;51.684;5.142;2024-01-15T06:55:51;100268.31;;;0.30;100.00
67840;BME280;54636;51.684;5.142;2024-01-15T06:58:16;100267.66;;;0.26;100.00
67840;BME280;54636;51.684;5.142;2024-01-15T07:00:41;100268.00;;;0.28;100.00
67840;BME280;54636;51.684;5.142;2024-01-15T07:03:07;100264.56;;;0.27;100.00
67840;BME280;54636;51.684;5.142;2024-01-15T07:05:32;100267.56;;;0.29;100.00
67840;BME280;54636;51.684;5.142;2024-01-15T07:07:58;100265.75;;;0.26;100.00
67840;BME280;54636;51.684;5.142;2024-01-15T07:10:23;100255.28;;;0.32;100.00
67840;BME280;54636;51.684;5.142;2024-01-15T07:12:49;100259.22;;;0.27;100.00
67840;BME280;54636;51.684;5.142;2024-01-15T07:15:14;100272.91;;;0.29;100.00
67840;BME280;54636;51.684;5.142;2024-01-15T07:17:40;100273.91;;;0.36;100.00
67840;BME280;54636;51.684;5.142;2024-01-15T07:20:07;100269.13;;;0.43;100.00
67840;BME280;54636;51.684;5.142;2024-01-15T07:22:36;100271.38;;;0.45;100.00
67840;BME280;54636;51.684;5.142;2024-01-15T07:25:02;100267.75;;;0.51;100.00
67840;BME280;54636;51.684;5.142;2024-01-15T07:27:27;100277.59;;;0.54;100.00
67840;BME280;54636;51.684;5.142;2024-01-15T07:29:52;100266.13;;;0.41;100.00
67840;BME280;54636;51.684;5.142;2024-01-15T07:32:18;100258.84;;;0.42;100.00
67840;BME280;54636;51.684;5.142;2024-01-15T07:34:43;100260.03;;;0.41;100.00
67840;BME280;54636;51.684;5.142;2024-01-15T07:37:09;100266.97;;;0.38;100.00
67840;BME280;54636;51.684;5.142;2024-01-15T07:39:34;100267.28;;;0.40;100.00
67840;BME280;54636;51.684;5.142;2024-01-15T07:42:00;100275.50;;;0.33;100.00
67840;BME280;54636;51.684;5.142;2024-01-15T07:44:26;100276.06;;;0.41;100.00
67840;BME280;54636;51.684;5.142;2024-01-15T07:46:51;100291.06;;;0.51;100.00
67840;BME280;54636;51.684;5.142;2024-01-15T07:49:16;100290.16;;;0.41;100.00
67840;BME280;54636;51.684;5.142;2024-01-15T07:51:42;100292.63;;;0.48;100.00
67840;BME280;54636;51.684;5.142;2024-01-15T07:54:09;100303.75;;;0.47;100.00
67840;BME280;54636;51.684;5.142;2024-01-15T07:56:34;100298.09;;;0.45;100.00
67840;BME280;54636;51.684;5.142;2024-01-15T07:59:17;100306.94;;;0.42;100.00
67840;BME280;54636;51.684;5.142;2024-01-15T08:01:43;100321.69;;;0.46;100.00
67840;BME280;54636;51.684;5.142;2024-01-15T08:04:08;100317.78;;;0.51;100.00
67840;BME280;54636;51.684;5.142;2024-01-15T08:06:34;100298.63;;;0.52;100.00
67840;BME280;54636;51.684;5.142;2024-01-15T08:08:59;100297.47;;;0.53;100.00
67840;BME280;54636;51.684;5.142;2024-01-15T08:11:25;100297.56;;;0.50;100.00
67840;BME280;54636;51.684;5.142;2024-01-15T08:13:50;100294.38;;;0.55;100.00
67840;BME280;54636;51.684;5.142;2024-01-15T08:16:15;100289.44;;;0.53;100.00
67840;BME280;54636;51.684;5.142;2024-01-15T08:18:41;100299.63;;;0.58;100.00
67840;BME280;54636;51.684;5.142;2024-01-15T08:21:07;100299.19;;;0.60;100.00
67840;BME280;54636;51.684;5.142;2024-01-15T08:23:34;100302.63;;;0.60;100.00
67840;BME280;54636;51.684;5.142;2024-01-15T08:25:59;100295.25;;;0.64;100.00
67840;BME280;54636;51.684;5.142;2024-01-15T08:28:25;100298.34;;;0.63;100.00
67840;BME280;54636;51.684;5.142;2024-01-15T08:30:50;100294.06;;;0.65;100.00
67840;BME280;54636;51.684;5.142;2024-01-15T08:33:16;100295.03;;;0.59;100.00
67840;BME280;54636;51.684;5.142;2024-01-15T08:35:41;100292.69;;;0.61;100.00
67840;BME280;54636;51.684;5.142;2024-01-15T08:38:06;100302.41;;;0.68;100.00
67840;BME280;54636;51.684;5.142;2024-01-15T08:40:32;100303.16;;;0.68;100.00
67840;BME280;54636;51.684;5.142;2024-01-15T08:42:57;100299.72;;;0.68;100.00
67840;BME280;54636;51.684;5.142;2024-01-15T08:45:22;100287.09;;;0.68;100.00
67840;BME280;54636;51.684;5.142;2024-01-15T08:47:48;100281.00;;;0.68;100.00
67840;BME280;54636;51.684;5.142;2024-01-15T08:50:14;100274.28;;;0.63;100.00
67840;BME280;54636;51.684;5.142;2024-01-15T08:52:39;100281.56;;;0.62;100.00
67840;BME280;54636;51.684;5.142;2024-01-15T08:55:05;100274.06;;;0.57;100.00
67840;BME280;54636;51.684;5.142;2024-01-15T08:57:32;100271.50;;;0.54;100.00
67840;BME280;54636;51.684;5.142;2024-01-15T08:59:58;100277.16;;;0.56;100.00
67840;BME280;54636;51.684;5.142;2024-01-15T09:02:24;100271.91;;;0.52;100.00
67840;BME280;54636;51.684;5.142;2024-01-15T09:04:49;100274.69;;;0.49;100.00
67840;BME280;54636;51.684;5.142;2024-01-15T09:07:14;100284.94;;;0.50;100.00
67840;BME280;54636;51.684;5.142;2024-01-15T09:09:40;100272.53;;;0.44;100.00
67840;BME280;54636;51.684;5.142;2024-01-15T09:12:07;100278.31;;;0.42;100.00
67840;BME280;54636;51.684;5.142;2024-01-15T09:14:32;100285.47;;;0.45;100.00
67840;BME280;54636;51.684;5.142;2024-01-15T09:16:59;100289.50;;;0.37;100.00
67840;BME280;54636;51.684;5.142;2024-01-15T09:19:24;100294.00;;;0.40;100.00
67840;BME280;54636;51.684;5.142;2024-01-15T09:21:50;100296.69;;;0.40;100.00
67840;BME280;54636;51.684;5.142;2024-01-15T09:24:15;100292.59;;;0.36;100.00
67840;BME280;54636;51.684;5.142;2024-01-15T09:26:41;100297.09;;;0.39;100.00
67840;BME280;54636;51.684;5.142;2024-01-15T09:29:06;100291.84;;;0.35;100.00
67840;BME280;54636;51.684;5.142;2024-01-15T09:31:31;100301.88;;;0.31;100.00
67840;BME280;54636;51.684;5.142;2024-01-15T09:33:57;100302.63;;;0.31;100.00
67840;BME280;54636;51.684;5.142;2024-01-15T09:36:24;100300.72;;;0.32;100.00
67840;BME280;54636;51.684;5.142;2024-01-15T09:38:50;100306.84;;;0.45;100.00
67840;BME280;54636;51.684;5.142;2024-01-15T09:41:16;100307.50;;;0.49;100.00
67840;BME280;54636;51.684;5.142;2024-01-15T09:43:42;100304.06;;;0.49;100.00
67840;BME280;54636;51.684;5.142;2024-01-15T09:46:08;100308.91;;;0.54;100.00
67840;BME280;54636;51.684;5.142;2024-01-15T09:48:33;100311.06;;;0.72;100.00
67840;BME280;54636;51.684;5.142;2024-01-15T09:51:01;100319.00;;;0.88;100.00
67840;BME280;54636;51.684;5.142;2024-01-15T09:53:26;100321.63;;;1.04;100.00
67840;BME280;54636;51.684;5.142;2024-01-15T09:55:53;100324.59;;;1.06;100.00
67840;BME280;54636;51.684;5.142;2024-01-15T09:58:18;100326.56;;;1.18;100.00
67840;BME280;54636;51.684;5.142;2024-01-15T10:00:44;100318.28;;;1.38;100.00
67840;BME280;54636;51.684;5.142;2024-01-15T10:03:10;100322.66;;;1.57;100.00
67840;BME280;54636;51.684;5.142;2024-01-15T10:05:37;100332.06;;;1.75;100.00
67840;BME280;54636;51.684;5.142;2024-01-15T10:08:03;100334.66;;;1.78;100.00
67840;BME280;54636;51.684;5.142;2024-01-15T10:10:29;100325.56;;;1.63;100.00
67840;BME280;54636;51.684;5.142;2024-01-15T10:12:55;100337.44;;;1.62;100.00
67840;BME280;54636;51.684;5.142;2024-01-15T10:15:23;100349.97;;;1.52;100.00
67840;BME280;54636;51.684;5.142;2024-01-15T10:17:50;100354.69;;;1.23;100.00
67840;BME280;54636;51.684;5.142;2024-01-15T10:20:15;100338.91;;;0.87;100.00
67840;BME280;54636;51.684;5.142;2024-01-15T10:22:42;100344.75;;;0.69;100.00
67840;BME280;54636;51.684;5.142;2024-01-15T10:25:13;100335.97;;;0.56;100.00
67840;BME280;54636;51.684;5.142;2024-01-15T10:27:40;100337.88;;;0.55;100.00
67840;BME280;54636;51.684;5.142;2024-01-15T10:30:07;100318.09;;;0.53;100.00
67840;BME280;54636;51.684;5.142;2024-01-15T10:32:33;100315.53;;;0.49;100.00
67840;BME280;54636;51.684;5.142;2024-01-15T10:34:58;100313.06;;;0.55;100.00
67840;BME280;54636;51.684;5.142;2024-01-15T10:37:24;100314.16;;;0.57;100.00
67840;BME280;54636;51.684;5.142;2024-01-15T10:39:51;100324.41;;;0.59;100.00
67840;BME280;54636;51.684;5.142;2024-01-15T10:42:16;100325.81;;;0.63;100.00
67840;BME280;54636;51.684;5.142;2024-01-15T10:44:44;100317.91;;;0.73;100.00
67840;BME280;54636;51.684;5.142;2024-01-15T10:47:09;100325.22;;;0.85;100.00
67840;BME280;54636;51.684;5.142;2024-01-15T10:49:36;100332.44;;;1.13;100.00
67840;BME280;54636;51.684;5.142;2024-01-15T10:52:02;100328.25;;;1.50;100.00
67840;BME280;54636;51.684;5.142;2024-01-15T10:54:28;100330.13;;;1.88;100.00
67840;BME280;54636;51.684;5.142;2024-01-15T10:56:56;100329.38;;;2.22;100.00
67840;BME280;54636;51.684;5.142;2024-01-15T10:59:21;100324.53;;;2.29;100.00
67840;BME280;54636;51.684;5.142;2024-01-15T11:01:50;100337.91;;;2.29;100.00
67840;BME280;54636;51.684;5.142;2024-01-15T11:04:19;100334.34;;;2.11;100.00
67840;BME280;54636;51.684;5.142;2024-01-15T11:06:47;100331.25;;;1.99;100.00
67840;BME280;54636;51.684;5.142;2024-01-15T11:09:13;100342.56;;;1.82;100.00
67840;BME280;54636;51.684;5.142;2024-01-15T11:11:44;100340.75;;;1.66;100.00
67840;BME280;54636;51.684;5.142;2024-01-15T11:14:10;100329.09;;;1.47;100.00
67840;BME280;54636;51.684;5.142;2024-01-15T11:16:55;100332.41;;;1.39;100.00
67840;BME280;54636;51.684;5.142;2024-01-15T11:19:56;100335.44;;;1.28;100.00
67840;BME280;54636;51.684;5.142;2024-01-15T11:24:54;100341.84;;;1.30;100.00
67840;BME280;54636;51.684;5.142;2024-01-15T11:27:57;100329.41;;;1.37;100.00
67840;BME280;54636;51.684;5.142;2024-01-15T11:30:25;100339.81;;;1.47;100.00
67840;BME280;54636;51.684;5.142;2024-01-15T11:32:50;100338.53;;;1.52;100.00
67840;BME280;54636;51.684;5.142;2024-01-15T11:35:16;100338.19;;;1.62;100.00
67840;BME280;54636;51.684;5.142;2024-01-15T11:40:23;100329.94;;;1.70;100.00
67840;BME280;54636;51.684;5.142;2024-01-15T11:43:04;100337.75;;;1.77;100.00
67840;BME280;54636;51.684;5.142;2024-01-15T11:45:31;100330.94;;;1.97;100.00
67840;BME280;54636;51.684;5.142;2024-01-15T11:48:12;100336.78;;;2.18;100.00
67840;BME280;54636;51.684;5.142;2024-01-15T11:50:42;100337.22;;;2.16;100.00
67840;BME280;54636;51.684;5.142;2024-01-15T11:53:17;100325.56;;;2.10;100.00
67840;BME280;54636;51.684;5.142;2024-01-15T11:55:45;100333.34;;;2.17;100.00
67840;BME280;54636;51.684;5.142;2024-01-15T11:58:11;100327.38;;;2.13;100.00
67840;BME280;54636;51.684;5.142;2024-01-15T12:01:03;100332.31;;;2.02;100.00
67840;BME280;54636;51.684;5.142;2024-01-15T12:03:32;100336.97;;;1.89;100.00
67840;BME280;54636;51.684;5.142;2024-01-15T12:05:58;100339.34;;;1.87;100.00
67840;BME280;54636;51.684;5.142;2024-01-15T12:08:25;100347.41;;;1.74;100.00
67840;BME280;54636;51.684;5.142;2024-01-15T12:10:52;100345.38;;;1.65;100.00
67840;BME280;54636;51.684;5.142;2024-01-15T12:13:18;100351.91;;;1.64;100.00
67840;BME280;54636;51.684;5.142;2024-01-15T12:15:45;100343.44;;;1.53;100.00
67840;BME280;54636;51.684;5.142;2024-01-15T12:18:13;100353.19;;;1.60;100.00
67840;BME280;54636;51.684;5.142;2024-01-15T12:20:40;100349.97;;;1.65;100.00
67840;BME280;54636;51.684;5.142;2024-01-15T12:23:06;100362.59;;;1.90;100.00
67840;BME280;54636;51.684;5.142;2024-01-15T12:25:32;100379.25;;;2.07;100.00
67840;BME280;54636;51.684;5.142;2024-01-15T12:27:59;100381.06;;;2.10;100.00
67840;BME280;54636;51.684;5.142;2024-01-15T12:30:30;100397.03;;;2.01;100.00
67840;BME280;54636;51.684;5.142;2024-01-15T12:33:01;100397.06;;;1.88;100.00
67840;BME280;54636;51.684;5.142;2024-01-15T12:35:28;100407.03;;;1.62;100.00
67840;BME280;54636;51.684;5.142;2024-01-15T12:37:55;100416.84;;;1.14;100.00
67840;BME280;54636;51.684;5.142;2024-01-15T12:40:22;100414.53;;;0.87;100.00
67840;BME280;54636;51.684;5.142;2024-01-15T12:42:47;100421.06;;;0.57;100.00
67840;BME280;54636;51.684;5.142;2024-01-15T12:45:13;100419.66;;;0.37;100.00
67840;BME280;54636;51.684;5.142;2024-01-15T12:47:40;100409.22;;;0.26;100.00
67840;BME280;54636;51.684;5.142;2024-01-15T12:50:12;100391.03;;;0.21;100.00